Time;durP1;ratioP1;P1;durP2;ratioP2;P2;SDS_P1;SDS_P2;PMS_P1;PMS_P2;Temp;Humidity;BMP_temperature;BMP_pressure;BME280_temperature;BME280_humidity;BME280_pressure;Samples;Min_cycle;Max_cycle;Signal;HPM_P1;HPM_P2
2022/08/05 00:00:55;;;;;;;7.57;3.83;;;;;;;26.96;46.62;101595.66;5009673;28;20100;-70
2022/08/05 00:03:21;;;;;;;7.38;2.83;;;;;;;27.16;46.12;101605.34;5009977;28;20041;-71
2022/08/05 00:05:46;;;;;;;7.85;2.97;;;;;;;26.61;47.40;101589.06;5009898;28;20694;-70
2022/08/05 00:08:11;;;;;;;9.57;3.20;;;;;;;26.75;47.11;101600.88;5009800;28;20068;-72
2022/08/05 00:10:37;;;;;;;8.75;3.13;;;;;;;26.05;49.23;101606.13;5009989;28;20037;-70
2022/08/05 00:13:02;;;;;;;10.73;3.80;;;;;;;26.84;47.05;101611.97;5007324;28;20084;-71
2022/08/05 00:15:28;;;;;;;5.35;2.70;;;;;;;27.02;46.54;101618.41;5007051;28;20046;-69
2022/08/05 00:17:53;;;;;;;10.00;2.97;;;;;;;26.96;46.44;101623.25;5009577;28;20054;-71
2022/08/05 00:20:18;;;;;;;10.02;2.90;;;;;;;26.52;47.84;101621.28;5006927;28;20040;-70
2022/08/05 00:22:44;;;;;;;8.00;3.65;;;;;;;25.90;49.63;101617.47;5009667;28;20041;-70
2022/08/05 00:25:09;;;;;;;8.18;3.15;;;;;;;25.80;49.84;101622.38;5008951;28;20506;-70
2022/08/05 00:27:34;;;;;;;10.32;3.35;;;;;;;25.85;49.46;101625.00;5008877;28;20034;-70
2022/08/05 00:30:02;;;;;;;14.32;3.35;;;;;;;26.25;48.78;101626.91;5009677;28;20498;-70
2022/08/05 00:32:28;;;;;;;13.50;2.88;;;;;;;26.30;48.53;101601.97;5009369;28;20123;-70
2022/08/05 00:34:53;;;;;;;7.00;2.35;;;;;;;25.94;49.14;101598.38;5001901;28;20379;-71
2022/08/05 00:37:18;;;;;;;10.32;3.40;;;;;;;25.71;50.09;101600.25;4989764;28;20042;-71
2022/08/05 00:39:44;;;;;;;6.68;2.80;;;;;;;25.50;50.89;101604.56;4989722;28;20509;-71
2022/08/05 00:42:09;;;;;;;12.05;3.28;;;;;;;25.83;49.82;101614.31;4989547;28;20042;-71
2022/08/05 00:44:35;;;;;;;6.68;3.40;;;;;;;26.05;49.06;101619.06;4989733;28;20038;-70
2022/08/05 00:47:00;;;;;;;6.78;2.35;;;;;;;26.42;48.27;101609.69;4989766;28;20046;-71
2022/08/05 00:49:25;;;;;;;10.55;3.70;;;;;;;25.85;49.81;101606.56;4990006;28;20022;-70
2022/08/05 00:51:51;;;;;;;7.30;2.78;;;;;;;25.72;50.02;101604.66;4989843;28;20057;-73
2022/08/05 00:54:16;;;;;;;7.90;2.47;;;;;;;26.05;49.29;101608.03;4989489;28;20046;-70
2022/08/05 00:56:42;;;;;;;10.48;3.25;;;;;;;25.96;49.48;101604.41;4989544;28;20093;-70
2022/08/05 00:59:07;;;;;;;8.57;2.63;;;;;;;25.64;50.30;101596.28;4989581;28;20041;-70
2022/08/05 01:01:33;;;;;;;6.35;2.50;;;;;;;25.59;50.47;101586.19;4989935;28;20093;-71
2022/08/05 01:03:58;;;;;;;10.73;3.08;;;;;;;25.22;51.63;101589.09;4989584;28;20035;-70
2022/08/05 01:06:24;;;;;;;5.72;2.10;;;;;;;25.59;50.67;101591.69;4989680;28;20046;-71
2022/08/05 01:08:49;;;;;;;7.10;2.40;;;;;;;25.48;51.10;101594.97;4989769;28;20122;-71
2022/08/05 01:11:20;;;;;;;9.75;3.10;;;;;;;25.78;49.71;101597.09;4989377;28;25530;-71
2022/08/05 01:14:02;;;;;;;10.55;2.90;;;;;;;26.02;49.27;101600.41;4989887;28;20151;-70
2022/08/05 01:16:29;;;;;;;8.40;3.08;;;;;;;25.72;50.09;101601.06;4989588;28;20515;-70
2022/08/05 01:19:04;;;;;;;6.72;2.58;;;;;;;25.58;50.11;101603.84;4989333;28;20213;-69
2022/08/05 01:21:41;;;;;;;7.95;2.60;;;;;;;25.68;50.29;101602.81;4969889;28;20050;-71
2022/08/05 01:24:41;;;;;;;8.07;2.80;;;;;;;26.24;48.66;101594.94;4969958;28;20054;-70
2022/08/05 01:27:44;;;;;;;8.05;2.22;;;;;;;25.58;50.49;101587.31;4972574;28;20415;-69
2022/08/05 01:30:12;;;;;;;9.90;2.38;;;;;;;25.87;49.88;101578.69;4990824;28;20479;-70
2022/08/05 01:32:41;;;;;;;8.43;2.53;;;;;;;26.02;49.56;101592.16;4989134;28;20089;-72
2022/08/05 01:35:15;;;;;;;5.83;2.20;;;;;;;25.97;49.38;101600.50;4990635;28;20064;-70
2022/08/05 01:37:46;;;;;;;7.18;2.30;;;;;;;26.08;48.85;101599.22;4990859;28;20145;-71
2022/08/05 01:40:14;;;;;;;4.07;2.30;;;;;;;26.50;48.01;101604.25;4990680;28;20500;-70
2022/08/05 01:42:43;;;;;;;9.57;3.17;;;;;;;25.58;50.10;101598.34;4990144;28;20038;-69
2022/08/05 01:45:09;;;;;;;6.32;2.72;;;;;;;25.08;51.84;101586.34;4990531;28;20142;-70
2022/08/05 01:47:36;;;;;;;9.00;3.00;;;;;;;25.47;50.54;101596.09;4990399;28;20034;-70
2022/08/05 01:50:04;;;;;;;9.70;2.40;;;;;;;25.25;51.24;101580.25;4990288;28;20046;-70
2022/08/05 01:52:35;;;;;;;7.03;2.50;;;;;;;25.16;51.43;101585.66;4990336;28;20047;-71
2022/08/05 01:55:04;;;;;;;11.20;2.33;;;;;;;25.71;49.87;101586.47;4989901;28;20089;-70
2022/08/05 01:57:36;;;;;;;4.88;2.20;;;;;;;25.91;49.25;101597.06;4990064;28;20486;-69
2022/08/05 02:00:04;;;;;;;5.10;2.13;;;;;;;25.79;49.94;101587.69;4990084;28;20046;-70
2022/08/05 02:02:30;;;;;;;9.23;2.53;;;;;;;26.07;49.41;101592.88;4989822;28;20039;-72
2022/08/05 02:04:59;;;;;;;7.28;2.80;;;;;;;25.69;50.35;101608.00;4992078;28;20058;-70
2022/08/05 02:07:25;;;;;;;6.30;2.60;;;;;;;25.90;49.91;101600.13;4992999;28;20106;-69
2022/08/05 02:09:51;;;;;;;12.43;3.03;;;;;;;25.93;49.89;101602.25;4992866;28;20046;-71
2022/08/05 02:12:26;;;;;;;13.77;2.97;;;;;;;25.36;50.88;101605.63;4992395;28;20057;-69
2022/08/05 02:15:02;;;;;;;9.57;2.00;;;;;;;25.78;50.05;101621.88;4992810;28;20154;-70
2022/08/05 02:17:36;;;;;;;11.30;2.90;;;;;;;26.04;49.85;101623.75;4972831;28;20101;-71
2022/08/05 02:20:06;;;;;;;8.52;2.88;;;;;;;25.59;50.72;101624.72;4981988;28;20146;-70
2022/08/05 02:22:40;;;;;;;7.30;2.00;;;;;;;25.88;49.95;101622.47;4992617;28;20104;-70
2022/08/05 02:25:16;;;;;;;7.30;2.13;;;;;;;24.92;52.49;101620.75;4992182;28;20046;-70
2022/08/05 02:27:47;;;;;;;9.20;2.45;;;;;;;24.93;52.16;101619.63;4990952;28;20038;-69
2022/08/05 02:30:14;;;;;;;9.88;2.05;;;;;;;25.12;51.67;101611.31;4992294;28;20117;-71
2022/08/05 02:32:41;;;;;;;7.15;2.00;;;;;;;25.58;50.56;101625.03;4992374;28;20601;-70
2022/08/05 02:35:12;;;;;;;9.85;3.10;;;;;;;25.48;50.76;101630.75;4992293;28;20105;-71
2022/08/05 02:37:41;;;;;;;5.70;2.03;;;;;;;26.02;49.20;101626.00;4992600;28;20034;-70
2022/08/05 02:40:08;;;;;;;6.28;2.28;;;;;;;25.80;49.92;101617.69;4990786;28;20042;-70
2022/08/05 02:42:35;;;;;;;7.32;2.35;;;;;;;25.27;51.08;101614.63;4990401;28;20039;-69
2022/08/05 02:45:02;;;;;;;6.85;2.67;;;;;;;25.16;51.83;101618.66;4991853;28;20490;-70
2022/08/05 02:47:30;;;;;;;7.55;2.88;;;;;;;25.35;51.55;101624.09;4991863;28;20045;-69
2022/08/05 02:49:57;;;;;;;13.43;3.35;;;;;;;25.65;50.72;101622.72;4991810;28;20498;-70
2022/08/05 02:52:23;;;;;;;8.13;2.85;;;;;;;25.56;50.74;101627.28;4992528;28;20026;-71
2022/08/05 02:54:50;;;;;;;14.55;3.75;;;;;;;25.84;50.04;101631.66;4991496;28;20190;-69
2022/08/05 02:57:18;;;;;;;13.35;2.83;;;;;;;25.38;51.06;101633.66;4991884;28;20034;-70
2022/08/05 02:59:47;;;;;;;11.20;2.25;;;;;;;25.40;50.97;101636.94;4990510;28;20602;-70
2022/08/05 03:02:13;;;;;;;10.48;2.70;;;;;;;25.43;50.63;101639.94;4991680;28;20039;-69
2022/08/05 03:04:40;;;;;;;7.82;2.38;;;;;;;25.92;49.83;101623.50;4992147;28;20038;-71
2022/08/05 03:07:06;;;;;;;8.13;2.30;;;;;;;26.02;49.27;101628.75;4991663;28;20066;-69
2022/08/05 03:09:31;;;;;;;11.93;2.65;;;;;;;26.01;49.04;101618.88;4991631;28;20034;-70
2022/08/05 03:11:57;;;;;;;9.20;2.72;;;;;;;25.94;49.24;101617.66;4991203;28;20050;-71
2022/08/05 03:14:22;;;;;;;8.05;2.22;;;;;;;25.58;50.10;101620.34;4991742;28;20029;-70
2022/08/05 03:16:47;;;;;;;7.72;3.28;;;;;;;25.90;49.44;101622.16;4991528;28;20050;-69
2022/08/05 03:19:13;;;;;;;11.15;2.40;;;;;;;25.31;50.51;101620.31;4991343;28;20072;-71
2022/08/05 03:21:39;;;;;;;10.43;2.60;;;;;;;25.57;49.89;101613.19;4991257;28;20034;-70
2022/08/05 03:24:05;;;;;;;6.47;1.92;;;;;;;25.37;50.26;101602.59;4988820;28;20046;-71
2022/08/05 03:26:31;;;;;;;12.57;3.30;;;;;;;24.72;52.29;101615.63;4989858;28;20494;-71
2022/08/05 03:28:56;;;;;;;11.85;2.55;;;;;;;25.21;50.95;101612.25;4990096;28;20088;-69
2022/08/05 03:31:24;;;;;;;7.20;2.40;;;;;;;25.32;50.57;101597.16;4991037;28;20039;-71
2022/08/05 03:33:50;;;;;;;6.43;1.88;;;;;;;25.01;51.17;101607.94;4990415;28;20122;-71
2022/08/05 03:36:16;;;;;;;6.88;2.10;;;;;;;24.75;52.09;101605.94;4990115;28;20409;-69
2022/08/05 03:38:41;;;;;;;4.07;1.98;;;;;;;25.08;51.53;101605.59;4990079;28;20031;-70
2022/08/05 03:41:07;;;;;;;5.93;1.88;;;;;;;25.13;50.76;101602.78;4989855;28;20379;-70
2022/08/05 03:43:33;;;;;;;6.63;2.20;;;;;;;24.92;51.28;101611.69;4990754;28;20066;-71
2022/08/05 03:45:58;;;;;;;6.38;1.95;;;;;;;25.64;49.49;101599.84;4991309;28;20536;-72
2022/08/05 03:48:27;;;;;;;5.82;2.13;;;;;;;24.39;52.97;101602.94;4991469;28;20045;-69
2022/08/05 03:51:11;;;;;;;6.95;2.13;;;;;;;25.04;51.34;101607.31;4991090;28;20027;-72
2022/08/05 03:53:42;;;;;;;5.47;2.42;;;;;;;24.98;51.63;101605.00;4990964;28;20049;-70
2022/08/05 03:56:20;;;;;;;9.60;2.33;;;;;;;24.93;51.14;101594.06;4990557;28;20037;-70
2022/08/05 03:58:47;;;;;;;8.23;3.17;;;;;;;25.20;50.68;101594.09;4991049;28;20635;-72
2022/08/05 04:01:15;;;;;;;7.55;3.00;;;;;;;25.03;50.97;101602.13;4987421;28;20050;-70
2022/08/05 04:03:43;;;;;;;6.85;2.20;;;;;;;25.33;50.14;101600.75;4975436;28;20047;-70
2022/08/05 04:06:09;;;;;;;7.30;2.67;;;;;;;24.62;52.02;101614.94;4973304;28;20043;-72
2022/08/05 04:08:35;;;;;;;6.50;3.03;;;;;;;24.89;51.05;101606.78;4985848;28;20037;-70
2022/08/05 04:11:02;;;;;;;5.20;2.13;;;;;;;25.06;50.86;101607.03;4988877;28;20030;-70
2022/08/05 04:13:29;;;;;;;5.22;2.28;;;;;;;25.43;49.59;101608.84;4990630;28;20121;-74
2022/08/05 04:15:55;;;;;;;9.75;2.58;;;;;;;25.17;50.21;101601.03;4998781;28;20030;-69
2022/08/05 04:18:23;;;;;;;7.65;2.33;;;;;;;24.46;52.24;101611.59;5009783;28;20046;-69
2022/08/05 04:20:56;;;;;;;9.93;2.65;;;;;;;25.09;50.51;101603.69;4992689;28;20038;-70
2022/08/05 04:23:26;;;;;;;6.03;2.30;;;;;;;25.51;49.19;101614.47;4990292;28;20704;-70
2022/08/05 04:25:52;;;;;;;6.32;2.20;;;;;;;25.35;49.63;101604.00;4990542;28;20049;-71
2022/08/05 04:28:21;;;;;;;8.50;2.25;;;;;;;24.84;51.03;101604.13;4989629;28;20124;-69
2022/08/05 04:30:47;;;;;;;13.32;2.55;;;;;;;25.47;49.54;101607.94;4989839;28;20042;-70
2022/08/05 04:33:13;;;;;;;6.00;1.95;;;;;;;25.20;50.20;101605.94;4989747;28;20092;-68
2022/08/05 04:35:39;;;;;;;6.20;1.73;;;;;;;25.72;48.80;101609.31;4989702;28;20044;-69
2022/08/05 04:38:05;;;;;;;9.43;2.42;;;;;;;25.59;49.08;101618.44;4989687;28;20026;-69
2022/08/05 04:40:38;;;;;;;8.27;1.95;;;;;;;25.81;48.59;101613.81;4989969;28;20046;-69
2022/08/05 04:43:05;;;;;;;6.22;2.28;;;;;;;25.37;49.63;101618.28;4989294;28;20042;-68
2022/08/05 04:45:30;;;;;;;4.43;1.73;;;;;;;25.22;50.38;101614.69;4989544;28;20069;-70
2022/08/05 04:48:22;;;;;;;10.00;2.15;;;;;;;25.05;50.61;101614.47;4989646;28;20514;-69
2022/08/05 04:50:48;;;;;;;9.02;2.30;;;;;;;25.11;50.54;101620.69;4990052;28;20038;-70
2022/08/05 04:53:16;;;;;;;3.95;1.98;;;;;;;25.53;49.45;101623.22;4989574;28;20076;-70
2022/08/05 04:56:00;;;;;;;5.85;1.83;;;;;;;24.90;51.23;101620.22;4989715;28;20031;-69
2022/08/05 04:58:25;;;;;;;5.75;2.13;;;;;;;25.49;49.73;101624.94;4989679;28;20042;-70
2022/08/05 05:00:50;;;;;;;8.77;2.25;;;;;;;25.59;49.25;101618.44;4989720;28;20046;-69
2022/08/05 05:03:16;;;;;;;5.45;1.90;;;;;;;25.63;49.31;101619.44;4991895;28;20410;-69
2022/08/05 05:05:41;;;;;;;5.35;1.65;;;;;;;25.21;50.40;101623.25;4993365;28;20037;-69
2022/08/05 05:08:08;;;;;;;11.38;2.33;;;;;;;25.72;49.00;101621.16;4993408;28;20084;-69
2022/08/05 05:10:43;;;;;;;8.30;2.67;;;;;;;25.03;50.86;101610.38;4993758;28;20038;-69
2022/08/05 05:13:14;;;;;;;6.63;2.03;;;;;;;25.09;50.85;101610.00;4993287;28;20044;-70
2022/08/05 05:15:41;;;;;;;4.63;2.25;;;;;;;25.23;50.25;101610.84;4991939;28;20038;-69
2022/08/05 05:18:07;;;;;;;5.65;3.08;;;;;;;25.14;50.72;101614.56;4993219;28;20073;-69
2022/08/05 05:20:33;;;;;;;6.75;2.58;;;;;;;25.16;50.73;101613.16;4993038;28;20061;-70
2022/08/05 05:23:00;;;;;;;11.95;2.58;;;;;;;25.04;51.10;101623.84;4993463;28;20536;-70
2022/08/05 05:25:26;;;;;;;12.25;2.53;;;;;;;24.76;52.02;101621.31;4993809;28;20027;-70
2022/08/05 05:27:52;;;;;;;9.00;3.30;;;;;;;24.79;51.68;101616.03;4992215;28;20050;-70
2022/08/05 05:30:18;;;;;;;11.35;2.75;;;;;;;24.88;51.94;101616.16;4993325;28;20038;-70
2022/08/05 05:32:44;;;;;;;10.82;2.58;;;;;;;25.25;50.42;101622.34;4992963;28;20035;-70
2022/08/05 05:35:10;;;;;;;9.02;3.00;;;;;;;25.40;50.38;101621.25;4993327;28;20045;-70
2022/08/05 05:37:50;;;;;;;9.30;3.03;;;;;;;24.78;51.94;101628.16;4993503;28;20061;-69
2022/08/05 05:40:20;;;;;;;9.65;3.03;;;;;;;25.15;51.03;101628.03;4992959;28;20038;-70
2022/08/05 05:42:46;;;;;;;7.60;2.60;;;;;;;24.78;51.77;101636.41;4992395;28;20042;-69
2022/08/05 05:45:11;;;;;;;6.07;3.13;;;;;;;24.53;52.66;101649.72;4992771;28;20034;-71
2022/08/05 05:47:37;;;;;;;8.27;2.65;;;;;;;24.35;53.63;101649.41;4992178;28;20042;-70
2022/08/05 05:50:03;;;;;;;6.20;2.55;;;;;;;24.93;51.62;101636.13;5007140;28;20378;-69
2022/08/05 05:52:29;;;;;;;5.38;2.20;;;;;;;24.78;52.05;101646.59;5012569;28;20033;-65
2022/08/05 05:54:58;;;;;;;3.50;2.65;;;;;;;24.85;51.93;101647.81;5003075;28;20030;-67
2022/08/05 05:57:23;;;;;;;5.88;2.60;;;;;;;25.31;50.51;101647.00;4992987;28;20089;-67
2022/08/05 05:59:49;;;;;;;9.25;2.90;;;;;;;25.40;50.09;101646.03;4992511;28;20038;-67
2022/08/05 06:02:14;;;;;;;7.28;3.25;;;;;;;25.19;50.97;101645.59;4992528;28;20034;-67
2022/08/05 06:04:40;;;;;;;6.07;2.38;;;;;;;24.63;51.94;101655.84;4992992;28;20451;-68
2022/08/05 06:07:05;;;;;;;6.00;2.33;;;;;;;25.11;50.96;101653.72;4991286;28;20046;-69
2022/08/05 06:09:31;;;;;;;7.38;2.58;;;;;;;25.03;51.20;101646.16;4990598;28;20049;-67
2022/08/05 06:11:56;;;;;;;7.05;2.45;;;;;;;25.40;50.44;101651.53;4990577;28;20035;-67
2022/08/05 06:14:22;;;;;;;10.93;2.53;;;;;;;24.71;52.45;101649.69;4992178;28;20033;-67
2022/08/05 06:16:47;;;;;;;8.50;2.42;;;;;;;24.91;51.23;101654.88;4992269;28;20058;-67
2022/08/05 06:19:12;;;;;;;9.55;2.28;;;;;;;24.89;51.32;101654.34;4991891;28;20406;-65
2022/08/05 06:21:38;;;;;;;4.90;2.17;;;;;;;24.83;51.80;101661.06;4992194;28;20039;-67
2022/08/05 06:24:07;;;;;;;7.68;3.00;;;;;;;24.54;51.75;101667.81;4991957;28;20487;-67
2022/08/05 06:26:32;;;;;;;4.78;2.10;;;;;;;24.26;52.63;101669.59;4991945;28;20125;-68
2022/08/05 06:28:58;;;;;;;6.40;2.72;;;;;;;24.57;51.78;101673.53;4992107;28;20043;-66
2022/08/05 06:31:23;;;;;;;3.88;1.73;;;;;;;25.14;50.43;101684.16;4992823;28;20038;-66
2022/08/05 06:33:49;;;;;;;4.65;2.67;;;;;;;25.45;49.61;101691.91;4991796;28;20162;-68
2022/08/05 06:36:15;;;;;;;9.45;2.22;;;;;;;24.72;50.66;101684.34;4991686;28;20042;-66
2022/08/05 06:38:40;;;;;;;7.70;2.35;;;;;;;24.93;50.09;101691.16;4991645;28;20034;-68
2022/08/05 06:41:06;;;;;;;2.95;2.00;;;;;;;24.82;50.29;101681.44;4991697;28;20046;-68
2022/08/05 06:43:31;;;;;;;5.85;2.08;;;;;;;24.99;49.84;101669.88;4991929;28;20019;-66
2022/08/05 06:45:57;;;;;;;7.28;1.45;;;;;;;24.93;49.71;101677.41;4990602;28;20031;-68
2022/08/05 06:48:22;;;;;;;6.22;2.58;;;;;;;25.32;48.78;101679.72;4992022;28;20042;-67
2022/08/05 06:50:48;;;;;;;5.75;2.00;;;;;;;25.58;47.43;101686.44;4990237;28;20418;-67
2022/08/05 06:53:13;;;;;;;2.67;1.15;;;;;;;25.04;48.06;101680.81;4990341;28;20037;-67
2022/08/05 06:55:40;;;;;;;3.42;1.10;;;;;;;25.22;47.33;101683.47;4991695;28;20547;-67
2022/08/05 06:58:05;;;;;;;2.80;1.10;;;;;;;24.85;48.54;101689.06;4991292;28;20042;-68
2022/08/05 07:00:32;;;;;;;10.80;1.10;;;;;;;25.02;48.12;101694.81;4991429;28;20045;-67
2022/08/05 07:02:58;;;;;;;2.97;1.08;;;;;;;24.67;49.55;101687.13;4991181;28;20062;-68
2022/08/05 07:05:24;;;;;;;4.25;1.40;;;;;;;25.50;48.06;101680.81;4990700;28;20034;-68
2022/08/05 07:07:50;;;;;;;4.88;1.00;;;;;;;25.88;46.85;101680.31;4991557;28;20042;-67
2022/08/05 07:10:15;;;;;;;2.20;0.85;;;;;;;26.44;45.36;101676.34;4990228;28;20442;-69
2022/08/05 07:18:08;;;;;;;7.10;1.65;;;;;;;24.99;48.00;101681.69;4990793;28;20049;-68
2022/08/05 07:20:34;;;;;;;4.95;0.90;;;;;;;25.76;45.82;101684.69;4990536;28;20031;-68
2022/08/05 07:22:59;;;;;;;3.10;0.85;;;;;;;25.78;44.75;101679.69;4990327;28;20027;-68
2022/08/05 07:25:25;;;;;;;3.65;0.80;;;;;;;26.41;43.54;101688.84;4989535;28;20037;-68
2022/08/05 07:27:52;;;;;;;2.58;0.82;;;;;;;25.54;45.08;101693.66;4989990;28;20551;-67
2022/08/05 07:30:17;;;;;;;1.90;0.75;;;;;;;26.27;43.56;101696.31;5003876;28;20038;-68
2022/08/05 07:32:43;;;;;;;5.70;1.10;;;;;;;26.13;43.41;101708.47;5008832;28;20805;-68
2022/08/05 07:35:10;;;;;;;1.95;0.70;;;;;;;25.61;44.56;101716.09;5009165;28;20029;-66
2022/08/05 07:37:36;;;;;;;1.83;0.65;;;;;;;25.68;44.47;101704.69;5009141;28;20516;-67
2022/08/05 07:40:02;;;;;;;5.22;0.95;;;;;;;26.08;44.21;101712.16;5008763;28;20057;-68
2022/08/05 07:42:28;;;;;;;3.92;0.80;;;;;;;26.02;43.73;101710.59;5008371;28;20068;-68
2022/08/05 07:44:54;;;;;;;7.00;1.52;;;;;;;26.21;43.50;101714.09;5009168;28;20390;-67
2022/08/05 07:47:20;;;;;;;3.97;0.73;;;;;;;25.15;46.01;101720.75;5009177;28;20038;-68
2022/08/05 07:49:45;;;;;;;2.30;0.82;;;;;;;25.50;45.69;101719.34;5009992;28;20101;-67
2022/08/05 07:52:10;;;;;;;3.92;0.88;;;;;;;26.10;43.51;101721.75;5009588;28;20397;-68
2022/08/05 07:54:36;;;;;;;1.85;0.73;;;;;;;25.45;45.31;101730.47;5007621;28;20037;-68
2022/08/05 07:57:05;;;;;;;0.70;0.50;;;;;;;25.13;45.61;101717.50;5009524;28;20046;-66
2022/08/05 07:59:30;;;;;;;6.53;1.20;;;;;;;25.68;44.97;101726.72;5004909;28;20505;-67
2022/08/05 08:01:55;;;;;;;2.50;0.90;;;;;;;25.62;44.70;101722.41;5009984;28;20041;-68
2022/08/05 08:04:21;;;;;;;1.63;0.73;;;;;;;25.08;45.54;101718.38;5006294;28;20461;-67
2022/08/05 08:06:46;;;;;;;1.95;0.60;;;;;;;25.22;44.89;101711.00;4989866;28;20043;-68
2022/08/05 08:09:12;;;;;;;2.00;1.25;;;;;;;24.95;45.69;101712.84;4990131;28;20613;-67
2022/08/05 08:11:37;;;;;;;2.75;0.90;;;;;;;25.60;44.56;101719.16;4989973;28;20042;-67
2022/08/05 08:14:03;;;;;;;7.28;1.60;;;;;;;25.45;43.40;101722.19;4989738;28;20018;-67
2022/08/05 08:16:28;;;;;;;1.70;0.52;;;;;;;25.24;43.77;101729.94;5001105;28;20041;-66
2022/08/05 08:18:53;;;;;;;2.78;1.65;;;;;;;25.41;43.39;101734.94;5008898;28;20042;-65
2022/08/05 08:21:19;;;;;;;3.53;1.27;;;;;;;25.84;42.30;101741.81;5006830;28;20042;-67
2022/08/05 08:23:44;;;;;;;1.15;0.70;;;;;;;25.27;43.08;101741.19;5006696;28;20045;-67
2022/08/05 08:26:10;;;;;;;0.77;0.45;;;;;;;25.66;42.36;101740.78;5009106;28;20030;-67
2022/08/05 08:28:35;;;;;;;3.33;0.57;;;;;;;25.93;41.37;101735.28;5009374;28;20033;-67
2022/08/05 08:31:01;;;;;;;3.05;0.70;;;;;;;25.74;40.60;101740.09;5008791;28;20042;-66
2022/08/05 08:33:26;;;;;;;0.90;0.38;;;;;;;25.35;40.49;101744.34;5009130;28;20426;-66
2022/08/05 08:35:51;;;;;;;2.63;0.70;;;;;;;26.10;40.21;101735.50;5008555;28;20034;-66
2022/08/05 08:38:17;;;;;;;4.28;0.80;;;;;;;26.53;37.33;101738.75;5008597;28;20647;-66
2022/08/05 08:40:43;;;;;;;1.63;0.50;;;;;;;26.61;37.67;101739.94;5008768;28;20037;-66
2022/08/05 08:43:11;;;;;;;3.60;0.90;;;;;;;26.91;38.15;101744.75;5008367;28;20046;-67
2022/08/05 08:45:37;;;;;;;1.80;0.65;;;;;;;26.65;38.78;101744.50;5008410;28;20116;-65
2022/08/05 08:48:04;;;;;;;3.22;0.80;;;;;;;26.42;38.98;101753.03;5008302;28;20550;-67
2022/08/05 08:50:32;;;;;;;2.75;0.63;;;;;;;26.41;39.85;101752.25;5008026;28;20092;-66
2022/08/05 08:53:05;;;;;;;5.93;0.73;;;;;;;27.25;37.71;101753.31;5008441;28;20095;-68
2022/08/05 08:55:32;;;;;;;2.60;0.45;;;;;;;25.89;39.44;101756.31;5008380;28;20403;-66
2022/08/05 08:58:00;;;;;;;1.85;0.40;;;;;;;26.37;38.74;101758.66;5008150;28;20115;-67
2022/08/05 09:00:26;;;;;;;2.85;0.65;;;;;;;26.60;38.04;101755.66;5006734;28;20445;-67
2022/08/05 09:02:53;;;;;;;0.70;0.40;;;;;;;26.51;36.30;101760.28;5008311;28;20045;-67
2022/08/05 09:05:19;;;;;;;4.45;0.93;;;;;;;26.87;34.96;101761.13;5008456;28;20112;-66
2022/08/05 09:07:45;;;;;;;1.63;0.75;;;;;;;26.69;34.20;101761.28;5008954;28;20026;-69
2022/08/05 09:10:11;;;;;;;0.95;0.40;;;;;;;26.35;33.97;101774.69;5007218;28;20038;-69
2022/08/05 09:12:37;;;;;;;1.35;0.50;;;;;;;26.28;34.00;101775.09;5003732;28;20058;-66
2022/08/05 09:15:04;;;;;;;2.95;0.65;;;;;;;26.21;35.15;101774.72;5004221;28;20044;-68
2022/08/05 09:17:30;;;;;;;5.22;0.70;;;;;;;26.81;34.52;101776.16;5008216;28;20116;-67
2022/08/05 09:19:56;;;;;;;3.10;0.38;;;;;;;26.20;32.98;101775.03;5007885;28;20033;-66
2022/08/05 09:22:21;;;;;;;4.00;0.50;;;;;;;26.55;34.53;101782.53;5009151;28;20588;-67
2022/08/05 09:25:02;;;;;;;2.53;0.47;;;;;;;25.98;35.65;101783.97;5006092;28;20041;-64
2022/08/05 09:27:39;;;;;;;2.35;0.60;;;;;;;25.73;33.76;101793.50;5008576;28;20034;-67
2022/08/05 09:30:05;;;;;;;1.67;0.82;;;;;;;25.62;32.88;101800.34;5008355;28;20030;-65
2022/08/05 09:32:36;;;;;;;1.08;0.38;;;;;;;25.66;33.68;101789.53;5008723;28;20038;-65
2022/08/05 09:35:15;;;;;;;1.33;0.15;;;;;;;25.95;33.52;101787.31;4997845;28;20022;-66
2022/08/05 09:37:52;;;;;;;2.35;1.05;;;;;;;26.62;34.22;101782.91;5002304;28;20069;-65
2022/08/05 09:40:39;;;;;;;3.08;0.57;;;;;;;27.47;32.58;101788.38;5004220;28;20033;-67
2022/08/05 09:43:06;;;;;;;1.00;0.35;;;;;;;26.87;31.13;101793.41;5004382;28;20129;-67
2022/08/05 09:45:41;;;;;;;1.50;0.38;;;;;;;25.80;31.89;101801.38;5008387;28;20034;-66
2022/08/05 09:48:27;;;;;;;2.30;0.43;;;;;;;26.92;30.47;101799.66;5005824;28;20038;-68
2022/08/05 09:50:58;;;;;;;2.60;0.50;;;;;;;27.02;30.20;101797.75;5009099;28;20088;-65
2022/08/05 09:53:25;;;;;;;2.58;0.60;;;;;;;26.91;31.36;101798.00;5008095;28;20100;-66
2022/08/05 09:56:00;;;;;;;0.60;0.20;;;;;;;26.56;32.14;101812.56;5012713;28;20026;-67
2022/08/05 09:58:27;;;;;;;2.90;0.70;;;;;;;27.58;31.79;101804.38;5005440;28;20037;-65
2022/08/05 10:01:02;;;;;;;3.00;0.60;;;;;;;27.42;30.38;101813.38;5010695;28;20042;-66
2022/08/05 10:03:28;;;;;;;1.75;0.30;;;;;;;27.43;31.28;101813.06;5008357;28;20509;-68
2022/08/05 10:06:20;;;;;;;2.55;0.60;;;;;;;27.98;31.02;101824.63;5011853;28;20196;-68
2022/08/05 10:08:45;;;;;;;1.80;0.40;;;;;;;26.85;31.60;101821.31;5002231;28;20376;-66
2022/08/05 10:11:15;;;;;;;3.15;0.30;;;;;;;26.18;32.50;101826.88;4982362;28;20057;-66
2022/08/05 10:13:42;;;;;;;5.05;0.40;;;;;;;26.64;31.05;101814.59;4993900;28;20455;-66
2022/08/05 10:16:34;;;;;;;1.58;0.32;;;;;;;27.61;30.67;101823.09;5007699;28;20034;-64
2022/08/05 10:19:02;;;;;;;1.65;0.15;;;;;;;27.96;26.98;101820.53;5010415;28;20108;-66
2022/08/05 10:21:27;;;;;;;2.08;0.40;;;;;;;27.16;29.47;101823.38;5011078;28;20049;-69
2022/08/05 10:23:53;;;;;;;4.60;0.40;;;;;;;26.98;29.10;101825.16;5010326;28;20390;-68
2022/08/05 10:26:19;;;;;;;0.75;0.20;;;;;;;27.63;27.08;101820.84;5011204;28;20034;-68
2022/08/05 10:28:46;;;;;;;5.68;0.30;;;;;;;26.98;28.02;101838.97;5010759;28;20042;-68
2022/08/05 10:31:14;;;;;;;1.98;0.30;;;;;;;27.01;27.46;101834.78;4997547;28;20037;-67
2022/08/05 10:33:39;;;;;;;3.40;0.70;;;;;;;27.60;27.13;101838.03;5008640;28;20079;-69
2022/08/05 10:36:05;;;;;;;6.45;0.40;;;;;;;27.72;26.34;101826.41;5011026;28;20034;-66
2022/08/05 10:38:32;;;;;;;1.27;0.20;;;;;;;27.49;27.40;101838.59;5011183;28;20042;-65
2022/08/05 10:41:35;;;;;;;3.03;0.55;;;;;;;28.28;26.41;101828.50;5010435;28;20040;-68
2022/08/05 10:44:05;;;;;;;3.35;0.60;;;;;;;28.43;26.26;101830.81;5009544;28;20556;-67
2022/08/05 10:46:51;;;;;;;1.77;0.45;;;;;;;27.95;24.00;101836.28;5011025;28;20060;-66
2022/08/05 10:49:18;;;;;;;1.77;0.28;;;;;;;27.64;23.68;101843.72;5010255;28;20514;-67
2022/08/05 10:51:49;;;;;;;2.05;0.30;;;;;;;28.23;22.42;101842.44;5000427;28;20042;-66
2022/08/05 10:54:15;;;;;;;1.58;0.28;;;;;;;28.14;23.07;101841.59;4981363;28;20460;-69
2022/08/05 10:56:49;;;;;;;0.95;0.10;;;;;;;27.98;23.72;101843.16;4972002;28;20039;-68
2022/08/05 10:59:25;;;;;;;1.25;0.40;;;;;;;27.68;24.21;101848.31;4977412;28;20026;-70
2022/08/05 11:02:12;;;;;;;1.55;0.30;;;;;;;28.64;22.27;101859.53;5017692;28;20776;-70
2022/08/05 11:04:46;;;;;;;6.38;0.50;;;;;;;28.20;23.11;101857.75;5016849;28;20030;-70
2022/08/05 11:07:17;;;;;;;0.82;0.20;;;;;;;28.53;21.38;101860.94;5024304;28;20049;-69
2022/08/05 11:09:48;;;;;;;0.52;0.20;;;;;;;28.07;22.11;101866.94;5009353;28;20073;-67
2022/08/05 11:12:44;;;;;;;1.65;0.20;;;;;;;27.73;21.98;101873.03;5009259;28;20034;-68
2022/08/05 11:15:15;;;;;;;5.05;0.30;;;;;;;29.17;20.62;101882.28;5004915;28;20050;-68
2022/08/05 11:17:43;;;;;;;1.45;0.30;;;;;;;27.90;21.19;101875.09;5003480;28;20049;-69
2022/08/05 11:20:39;;;;;;;1.15;0.40;;;;;;;27.54;23.22;101888.16;5009586;28;20048;-67
2022/08/05 11:23:34;;;;;;;1.52;0.28;;;;;;;27.87;23.16;101886.81;5009191;28;20069;-68
2022/08/05 11:26:09;;;;;;;2.38;0.30;;;;;;;27.47;23.70;101887.81;5009352;28;20030;-67
2022/08/05 11:28:35;;;;;;;0.85;0.10;;;;;;;28.48;22.76;101895.09;5008465;28;20029;-67
2022/08/05 11:31:04;;;;;;;1.10;0.22;;;;;;;27.40;23.30;101892.94;5004590;28;20121;-69
2022/08/05 11:33:35;;;;;;;3.40;0.30;;;;;;;28.02;23.43;101914.06;5009445;28;20033;-67
2022/08/05 11:36:02;;;;;;;2.70;0.30;;;;;;;28.01;24.22;101914.38;4996024;28;20121;-67